Time;durP1;ratioP1;P1;durP2;ratioP2;P2;SDS_P1;SDS_P2;PMS_P1;PMS_P2;Temp;Humidity;BMP_temperature;BMP_pressure;BME280_temperature;BME280_humidity;BME280_pressure;Samples;Min_cycle;Max_cycle;Signal;HPM_P1;HPM_P2
2023/01/27 00:00:28;;;;;;;15.38;11.20;;;6.20;60.30;;;;;;5012136;28;20656;-69
2023/01/27 00:02:55;;;;;;;14.18;10.55;;;6.10;60.20;;;;;;5026847;28;20710;-70
2023/01/27 00:05:22;;;;;;;14.65;10.98;;;6.20;60.50;;;;;;5032819;28;20206;-69
2023/01/27 00:07:49;;;;;;;17.42;11.77;;;6.20;60.40;;;;;;5030069;28;20206;-69
2023/01/27 00:10:18;;;;;;;15.25;10.77;;;6.20;60.50;;;;;;5032363;28;20694;-69
2023/01/27 00:15:33;;;;;;;15.93;11.48;;;6.20;60.80;;;;;;5017416;28;20199;-69
2023/01/27 00:18:00;;;;;;;19.13;11.32;;;6.20;61.00;;;;;;5019430;28;20229;-69
2023/01/27 00:26:05;;;;;;;14.30;10.70;;;6.20;61.10;;;;;;5011850;28;20345;-69
2023/01/27 00:28:32;;;;;;;16.27;12.55;;;6.20;61.20;;;;;;5019426;28;20195;-68
2023/01/27 00:31:00;;;;;;;14.68;11.02;;;6.20;61.30;;;;;;5030441;28;20226;-69
2023/01/27 00:33:26;;;;;;;14.98;11.55;;;6.20;61.20;;;;;;5019989;28;20290;-69
2023/01/27 00:35:58;;;;;;;18.10;12.43;;;6.20;61.40;;;;;;5011827;28;20657;-69
2023/01/27 00:38:25;;;;;;;18.90;12.88;;;6.20;61.60;;;;;;5012006;28;20234;-69
2023/01/27 00:43:33;;;;;;;16.83;11.27;;;6.20;61.40;;;;;;5018245;28;20211;-69
2023/01/27 00:46:01;;;;;;;14.75;10.80;;;6.30;61.50;;;;;;5030644;28;20201;-69
2023/01/27 00:48:28;;;;;;;14.02;11.40;;;6.30;61.60;;;;;;5022997;28;20215;-68
2023/01/27 00:50:55;;;;;;;15.70;11.38;;;6.20;61.40;;;;;;5011361;28;20226;-70
2023/01/27 00:53:21;;;;;;;18.45;11.57;;;6.30;61.60;;;;;;5024248;28;20233;-70
2023/01/27 00:55:48;;;;;;;17.85;12.18;;;6.20;61.60;;;;;;5020644;28;20612;-70
2023/01/27 00:58:15;;;;;;;18.48;13.00;;;6.20;61.60;;;;;;5015060;28;20301;-69
2023/01/27 01:00:42;;;;;;;15.75;11.82;;;6.20;61.70;;;;;;5030517;28;20202;-69
2023/01/27 01:03:10;;;;;;;15.93;12.13;;;6.20;61.70;;;;;;5028705;28;20232;-68
2023/01/27 01:05:37;;;;;;;17.27;12.13;;;6.20;61.90;;;;;;5023482;28;20206;-69
2023/01/27 01:08:04;;;;;;;16.88;11.70;;;6.20;61.80;;;;;;5020414;28;20210;-69
2023/01/27 01:10:30;;;;;;;17.30;11.35;;;6.20;61.90;;;;;;5020167;28;20310;-69
2023/01/27 01:12:57;;;;;;;18.00;12.40;;;6.20;61.90;;;;;;5026707;28;20213;-70
2023/01/27 01:15:24;;;;;;;16.95;11.70;;;6.20;62.00;;;;;;5022284;28;20691;-69
2023/01/27 01:17:51;;;;;;;16.15;12.23;;;6.20;62.20;;;;;;5020145;28;20241;-69
2023/01/27 01:20:19;;;;;;;18.10;13.13;;;6.20;62.10;;;;;;5037932;28;20729;-69
2023/01/27 01:22:46;;;;;;;16.75;12.35;;;6.20;62.30;;;;;;5012003;28;20199;-69
2023/01/27 01:25:12;;;;;;;15.98;12.18;;;6.20;62.30;;;;;;5011527;28;20247;-70
2023/01/27 01:27:39;;;;;;;19.50;12.27;;;6.20;62.50;;;;;;5011329;28;20756;-69
2023/01/27 01:30:08;;;;;;;16.77;12.40;;;6.20;62.50;;;;;;5024438;28;20898;-69
2023/01/27 01:32:35;;;;;;;17.83;12.65;;;6.20;62.50;;;;;;5028903;28;20198;-69
2023/01/27 01:35:01;;;;;;;18.98;13.10;;;6.20;62.30;;;;;;5011637;28;20644;-69
2023/01/27 01:37:29;;;;;;;18.70;12.90;;;6.20;62.40;;;;;;5011765;28;20235;-69
2023/01/27 01:39:56;;;;;;;18.52;13.07;;;6.20;62.40;;;;;;5011573;28;20199;-70
2023/01/27 01:42:23;;;;;;;15.82;11.98;;;6.20;62.40;;;;;;5028273;28;20198;-68
2023/01/27 01:45:12;;;;;;;17.30;12.85;;;6.30;62.50;;;;;;5034860;28;20238;-69
2023/01/27 01:47:39;;;;;;;16.33;12.10;;;6.30;63.30;;;;;;5034346;28;20215;-69
2023/01/27 01:50:06;;;;;;;18.77;12.52;;;6.20;62.40;;;;;;5027364;28;20218;-69
2023/01/27 01:52:34;;;;;;;15.60;12.18;;;6.20;62.40;;;;;;5019774;28;20227;-69
2023/01/27 01:55:01;;;;;;;17.10;11.60;;;6.30;62.60;;;;;;5019964;28;20226;-69
2023/01/27 01:57:32;;;;;;;18.00;12.55;;;6.20;62.60;;;;;;5018269;28;20226;-69
2023/01/27 02:00:05;;;;;;;18.40;11.95;;;6.20;62.80;;;;;;5032373;28;20201;-70
2023/01/27 02:02:33;;;;;;;15.90;11.85;;;6.30;62.90;;;;;;5016598;28;20194;-70
2023/01/27 02:05:04;;;;;;;14.77;11.45;;;6.20;62.80;;;;;;5019670;28;20219;-70
2023/01/27 02:07:38;;;;;;;15.35;11.85;;;6.30;62.90;;;;;;5031805;28;20553;-69
2023/01/27 02:10:06;;;;;;;16.30;12.02;;;6.30;62.90;;;;;;5019271;28;20201;-69
2023/01/27 02:12:32;;;;;;;18.75;11.70;;;6.30;62.90;;;;;;4991411;28;20401;-70
2023/01/27 02:14:59;;;;;;;16.27;11.80;;;6.20;63.60;;;;;;5014330;28;20226;-70
2023/01/27 02:17:26;;;;;;;18.52;11.88;;;6.20;62.80;;;;;;5016364;28;20232;-70
2023/01/27 02:20:03;;;;;;;17.13;11.82;;;6.30;62.90;;;;;;5034174;28;20217;-68
2023/01/27 02:22:39;;;;;;;17.13;11.85;;;6.30;62.90;;;;;;5025983;28;20205;-69
2023/01/27 02:25:14;;;;;;;16.05;12.25;;;6.30;62.90;;;;;;5032421;28;20739;-69
2023/01/27 02:27:43;;;;;;;15.10;11.70;;;6.30;62.90;;;;;;5034023;28;20210;-69
2023/01/27 02:30:11;;;;;;;18.70;12.93;;;6.30;62.90;;;;;;5018153;28;20203;-68
2023/01/27 02:32:37;;;;;;;14.95;11.70;;;6.30;62.90;;;;;;5016889;28;20706;-69
2023/01/27 02:35:08;;;;;;;19.90;12.55;;;6.30;63.00;;;;;;5033645;28;20218;-69
2023/01/27 02:37:36;;;;;;;16.33;12.38;;;6.30;63.00;;;;;;5034154;28;20194;-69
2023/01/27 02:40:04;;;;;;;16.73;12.50;;;6.30;63.80;;;;;;5033643;28;20197;-69
2023/01/27 02:42:31;;;;;;;18.90;13.02;;;6.30;63.00;;;;;;5033859;28;20624;-69
2023/01/27 02:44:59;;;;;;;17.10;12.32;;;6.20;62.70;;;;;;5034719;28;20226;-69
2023/01/27 02:47:26;;;;;;;17.98;12.07;;;6.30;63.00;;;;;;5032771;28;20221;-69
2023/01/27 02:49:54;;;;;;;18.80;12.80;;;6.30;62.90;;;;;;5024232;28;20565;-69
2023/01/27 02:52:21;;;;;;;15.13;11.77;;;6.30;62.90;;;;;;5014472;28;20230;-69
2023/01/27 02:54:48;;;;;;;17.90;13.27;;;6.30;62.90;;;;;;5031936;28;20563;-70
2023/01/27 02:57:15;;;;;;;18.02;12.90;;;6.30;64.00;;;;;;5014461;28;20203;-69
2023/01/27 02:59:42;;;;;;;18.23;12.32;;;6.30;63.30;;;;;;5032384;28;20583;-69
2023/01/27 03:02:13;;;;;;;17.67;12.45;;;6.30;63.40;;;;;;5013831;28;20187;-69
2023/01/27 03:04:40;;;;;;;17.77;12.52;;;6.30;64.10;;;;;;5031461;28;20194;-69
2023/01/27 03:07:07;;;;;;;19.27;12.85;;;6.30;63.30;;;;;;5027393;28;20206;-69
2023/01/27 03:09:34;;;;;;;17.83;12.77;;;6.30;63.30;;;;;;5017990;28;20196;-69
2023/01/27 03:20:15;;;;;;;18.60;12.60;;;6.20;63.50;;;;;;5024410;28;20685;-68
2023/01/27 03:22:42;;;;;;;18.85;13.45;;;6.20;63.50;;;;;;5027966;28;20253;-69
2023/01/27 03:25:09;;;;;;;20.77;13.65;;;6.20;63.50;;;;;;5030006;28;20237;-69
2023/01/27 03:27:36;;;;;;;17.02;13.05;;;6.20;63.60;;;;;;5033252;28;20206;-69
2023/01/27 03:30:05;;;;;;;19.48;13.63;;;6.20;63.60;;;;;;5000718;28;20203;-70
2023/01/27 03:32:35;;;;;;;23.58;14.95;;;6.20;63.70;;;;;;5013050;28;20226;-70
2023/01/27 03:35:02;;;;;;;18.67;13.63;;;6.20;64.00;;;;;;5021464;28;20227;-70
2023/01/27 03:48:35;;;;;;;19.25;13.40;;;6.20;64.90;;;;;;5014859;28;20225;-74
2023/01/27 03:51:04;;;;;;;19.95;14.65;;;6.20;64.20;;;;;;5022280;28;20209;-68
2023/01/27 03:53:30;;;;;;;22.70;13.88;;;6.20;64.20;;;;;;5026522;28;20218;-70
2023/01/27 03:55:57;;;;;;;18.08;13.82;;;6.40;64.30;;;;;;5027379;28;20226;-70
2023/01/27 03:58:27;;;;;;;22.27;14.25;;;6.40;65.00;;;;;;5026440;28;20783;-69
2023/01/27 04:00:56;;;;;;;21.33;14.02;;;6.30;64.30;;;;;;5014575;28;20209;-69
2023/01/27 04:08:56;;;;;;;18.20;12.85;;;6.20;64.40;;;;;;5031265;28;20293;-69
2023/01/27 04:14:08;;;;;;;20.30;13.15;;;6.20;64.30;;;;;;5022094;28;20741;-69
2023/01/27 04:16:36;;;;;;;20.15;13.38;;;6.20;64.40;;;;;;5030366;28;20212;-69
2023/01/27 04:19:04;;;;;;;18.02;13.35;;;6.30;64.40;;;;;;5031669;28;20275;-68
2023/01/27 04:21:33;;;;;;;17.48;12.75;;;6.30;64.40;;;;;;5025215;28;20203;-69
2023/01/27 04:24:00;;;;;;;20.25;13.75;;;6.20;64.40;;;;;;5021053;28;20214;-69
2023/01/27 04:26:32;;;;;;;19.05;13.35;;;6.20;64.40;;;;;;5027943;28;20230;-69
2023/01/27 04:28:58;;;;;;;18.52;13.32;;;6.20;64.50;;;;;;5018268;28;20560;-69
2023/01/27 04:31:26;;;;;;;20.05;14.18;;;6.20;64.30;;;;;;5028678;28;20226;-68
2023/01/27 04:33:52;;;;;;;20.17;13.70;;;6.20;64.30;;;;;;5027837;28;20217;-69
2023/01/27 04:36:19;;;;;;;21.58;13.43;;;6.20;64.30;;;;;;5031581;28;20210;-70
2023/01/27 04:38:49;;;;;;;20.92;13.70;;;6.30;64.50;;;;;;5030271;28;20249;-69
2023/01/27 04:41:15;;;;;;;19.20;13.85;;;6.20;64.40;;;;;;5016742;28;20215;-69
2023/01/27 04:43:42;;;;;;;18.00;12.85;;;6.20;64.40;;;;;;5013270;28;20736;-69
2023/01/27 04:46:09;;;;;;;20.90;13.70;;;6.20;64.40;;;;;;5024785;28;20199;-68
2023/01/27 04:48:36;;;;;;;21.67;13.48;;;6.20;64.50;;;;;;5028193;28;20559;-68
2023/01/27 04:51:03;;;;;;;17.63;13.25;;;6.20;64.70;;;;;;5031150;28;20221;-69
2023/01/27 04:53:29;;;;;;;20.33;13.93;;;6.20;64.90;;;;;;5027583;28;20694;-69
2023/01/27 04:56:04;;;;;;;19.33;14.25;;;6.30;65.10;;;;;;5030225;28;20562;-69
2023/01/27 04:58:31;;;;;;;22.75;14.13;;;6.20;65.20;;;;;;5018510;28;20574;-68
2023/01/27 05:00:57;;;;;;;20.45;14.55;;;6.40;65.50;;;;;;4996800;28;20198;-69
2023/01/27 05:03:24;;;;;;;21.05;14.95;;;6.20;65.30;;;;;;5028168;28;20219;-68
2023/01/27 05:05:52;;;;;;;25.30;14.95;;;6.20;65.50;;;;;;5013810;28;20672;-69
2023/01/27 05:08:18;;;;;;;23.63;15.50;;;6.30;65.70;;;;;;5011837;28;20199;-70
2023/01/27 05:10:45;;;;;;;21.63;15.07;;;6.30;65.70;;;;;;5018491;28;20714;-70
2023/01/27 05:13:14;;;;;;;24.85;15.73;;;6.20;65.60;;;;;;5016982;28;20671;-70
2023/01/27 05:15:40;;;;;;;24.17;15.43;;;6.20;65.70;;;;;;5024834;28;20225;-68
2023/01/27 05:18:07;;;;;;;21.17;15.73;;;6.30;65.80;;;;;;5020691;28;20227;-68
2023/01/27 05:20:34;;;;;;;23.42;15.40;;;6.30;66.10;;;;;;5022848;28;20203;-69
2023/01/27 05:25:43;;;;;;;24.15;15.95;;;6.30;66.10;;;;;;5027361;28;20253;-68
2023/01/27 05:28:10;;;;;;;24.52;15.10;;;6.30;66.00;;;;;;5035610;28;20206;-69
2023/01/27 05:30:38;;;;;;;26.30;16.60;;;6.20;66.00;;;;;;5015423;28;20230;-68
2023/01/27 05:33:07;;;;;;;21.77;15.27;;;6.30;66.20;;;;;;5015574;28;20239;-69
2023/01/27 05:35:34;;;;;;;24.60;15.55;;;6.20;66.10;;;;;;5027301;28;20303;-69
2023/01/27 05:38:01;;;;;;;31.70;18.33;;;6.20;66.20;;;;;;5034955;28;20218;-69
2023/01/27 05:40:28;;;;;;;28.65;18.10;;;6.20;66.20;;;;;;5034943;28;20624;-69
2023/01/27 05:42:54;;;;;;;25.90;16.75;;;6.20;66.20;;;;;;5030663;28;20196;-69
2023/01/27 05:45:21;;;;;;;26.27;17.17;;;6.20;66.30;;;;;;5033024;28;20203;-70
2023/01/27 05:47:52;;;;;;;27.23;16.95;;;6.20;66.30;;;;;;5022518;28;20211;-70
2023/01/27 05:50:19;;;;;;;27.85;17.98;;;6.20;66.30;;;;;;5025866;28;20204;-69
2023/01/27 05:52:46;;;;;;;25.70;16.27;;;6.20;66.30;;;;;;5019596;28;20313;-69
2023/01/27 05:55:13;;;;;;;25.77;16.55;;;6.20;66.30;;;;;;5026185;28;20648;-69
2023/01/27 05:57:39;;;;;;;23.00;15.85;;;6.20;66.30;;;;;;5016187;28;20219;-69
2023/01/27 06:00:08;;;;;;;26.17;16.60;;;6.10;66.10;;;;;;5015910;28;20662;-70
2023/01/27 06:02:34;;;;;;;27.80;17.35;;;6.20;66.30;;;;;;5021050;28;20198;-69
2023/01/27 06:05:02;;;;;;;24.27;15.80;;;6.20;66.30;;;;;;5028592;28;20207;-70
2023/01/27 06:07:29;;;;;;;25.80;17.27;;;6.20;66.40;;;;;;5034828;28;20203;-70
2023/01/27 06:09:56;;;;;;;25.95;16.35;;;6.20;66.40;;;;;;5029067;28;20207;-70
2023/01/27 06:12:23;;;;;;;26.00;16.55;;;6.20;66.40;;;;;;5034565;28;20214;-70
2023/01/27 06:14:51;;;;;;;28.42;16.95;;;6.20;66.40;;;;;;5020646;28;20289;-70
2023/01/27 06:17:17;;;;;;;25.77;16.30;;;6.10;66.40;;;;;;5020734;28;20477;-70
2023/01/27 06:19:44;;;;;;;27.27;17.20;;;6.20;66.50;;;;;;5029415;28;20202;-71
2023/01/27 06:22:13;;;;;;;27.58;16.45;;;6.10;66.40;;;;;;5033472;28;20570;-70
2023/01/27 06:24:40;;;;;;;29.40;17.02;;;6.30;66.70;;;;;;5033272;28;20298;-70
2023/01/27 06:27:06;;;;;;;31.30;17.90;;;6.30;66.50;;;;;;5032981;28;20191;-69
2023/01/27 06:29:33;;;;;;;27.17;16.58;;;6.30;66.60;;;;;;5018997;28;20230;-70
2023/01/27 06:32:00;;;;;;;26.38;17.13;;;6.30;66.40;;;;;;5021300;28;20223;-70
2023/01/27 06:34:27;;;;;;;25.08;16.60;;;6.30;66.40;;;;;;5028008;28;20420;-70
2023/01/27 06:36:54;;;;;;;24.85;16.30;;;6.30;67.30;;;;;;5032522;28;20213;-68
2023/01/27 06:39:22;;;;;;;28.27;16.70;;;6.30;67.20;;;;;;5034781;28;20206;-69
2023/01/27 06:41:49;;;;;;;28.77;16.25;;;6.30;66.40;;;;;;5031322;28;20245;-70
2023/01/27 06:44:16;;;;;;;29.80;17.23;;;6.30;66.50;;;;;;5028237;28;20225;-69
2023/01/27 06:46:43;;;;;;;26.60;16.35;;;6.30;66.60;;;;;;5024282;28;20212;-70
2023/01/27 06:49:10;;;;;;;29.92;16.90;;;6.30;66.60;;;;;;5028325;28;20690;-69
2023/01/27 06:51:37;;;;;;;24.73;15.32;;;6.30;66.60;;;;;;5027837;28;20198;-70
2023/01/27 06:54:04;;;;;;;29.33;16.85;;;6.30;66.60;;;;;;5022620;28;20242;-68
2023/01/27 06:56:32;;;;;;;27.63;15.43;;;6.30;66.60;;;;;;5026570;28;20269;-69
2023/01/27 06:58:59;;;;;;;26.67;17.40;;;6.30;66.60;;;;;;5014284;28;20735;-69
2023/01/27 07:01:27;;;;;;;27.60;16.98;;;6.30;67.50;;;;;;5015947;28;20582;-69
2023/01/27 07:03:54;;;;;;;27.20;17.48;;;6.30;66.70;;;;;;5029380;28;20203;-71
2023/01/27 07:06:21;;;;;;;27.00;16.85;;;6.30;66.60;;;;;;5032095;28;20302;-70
2023/01/27 07:08:49;;;;;;;26.42;17.33;;;6.30;66.60;;;;;;5020890;28;20286;-72
2023/01/27 07:11:16;;;;;;;27.35;16.23;;;6.30;66.70;;;;;;5021613;28;20245;-71
2023/01/27 07:13:45;;;;;;;26.58;17.25;;;6.30;66.70;;;;;;5016586;28;20667;-72
2023/01/27 07:16:11;;;;;;;25.48;16.25;;;6.30;66.60;;;;;;5015308;28;20204;-72
2023/01/27 07:18:38;;;;;;;29.48;17.95;;;6.40;66.60;;;;;;5022251;28;20246;-72
2023/01/27 07:21:06;;;;;;;25.65;16.98;;;6.40;66.60;;;;;;5033740;28;20234;-71
2023/01/27 07:23:33;;;;;;;26.77;15.93;;;6.40;66.70;;;;;;5028061;28;20194;-71
2023/01/27 07:26:01;;;;;;;25.05;15.82;;;6.40;66.50;;;;;;5017975;28;20299;-71
2023/01/27 07:28:28;;;;;;;25.52;15.73;;;6.40;66.60;;;;;;5029787;28;20817;-71
2023/01/27 07:31:01;;;;;;;26.15;15.60;;;6.40;66.60;;;;;;5027065;28;20224;-63
2023/01/27 07:33:28;;;;;;;28.73;16.27;;;6.40;66.90;;;;;;5017310;28;20207;-70
2023/01/27 07:35:55;;;;;;;29.45;16.85;;;6.40;66.90;;;;;;5017003;28;20209;-70
2023/01/27 07:38:37;;;;;;;25.55;16.85;;;6.40;67.10;;;;;;5022524;28;20226;-70
2023/01/27 07:41:05;;;;;;;23.33;14.90;;;6.40;67.20;;;;;;5036045;28;20658;-70
2023/01/27 07:43:32;;;;;;;24.33;15.65;;;6.40;66.70;;;;;;5050218;28;20552;-69
2023/01/27 07:46:00;;;;;;;20.38;13.82;;;6.20;66.30;;;;;;5043141;28;20349;-69
2023/01/27 07:51:49;;;;;;;21.50;13.98;;;6.40;66.40;;;;;;5029939;28;20217;-69
2023/01/27 07:54:16;;;;;;;24.90;13.70;;;6.40;66.20;;;;;;5020612;28;20226;-68
2023/01/27 07:56:43;;;;;;;20.10;13.65;;;6.40;66.20;;;;;;5015107;28;20357;-69
2023/01/27 07:59:10;;;;;;;23.30;12.85;;;6.40;65.90;;;;;;5022878;28;20202;-69
2023/01/27 08:01:40;;;;;;;21.27;13.32;;;6.40;66.40;;;;;;5012932;28;20214;-68
2023/01/27 08:04:06;;;;;;;21.65;13.48;;;6.50;65.50;;;;;;5019926;28;20215;-70
2023/01/27 08:06:33;;;;;;;20.40;12.95;;;6.40;65.30;;;;;;5032811;28;20655;-68
2023/01/27 08:09:00;;;;;;;19.25;11.82;;;6.50;65.30;;;;;;5028158;28;20206;-68
2023/01/27 08:11:27;;;;;;;20.25;12.60;;;6.50;65.20;;;;;;5031476;28;20205;-68
2023/01/27 08:13:54;;;;;;;17.25;11.30;;;6.50;65.10;;;;;;5032687;28;20226;-68
2023/01/27 08:16:20;;;;;;;17.77;11.82;;;6.50;65.50;;;;;;5027480;28;20227;-68
2023/01/27 08:18:53;;;;;;;16.70;11.55;;;6.50;65.40;;;;;;5030684;28;20232;-69
2023/01/27 08:21:20;;;;;;;15.10;10.15;;;6.50;64.60;;;;;;5029447;28;20265;-69
2023/01/27 08:23:47;;;;;;;16.85;11.10;;;6.60;64.50;;;;;;5032196;28;20237;-68
2023/01/27 08:26:13;;;;;;;16.65;11.50;;;6.60;64.20;;;;;;5032087;28;20234;-68
2023/01/27 08:28:41;;;;;;;17.58;10.80;;;6.60;64.10;;;;;;5032220;28;20295;-68
2023/01/27 08:31:09;;;;;;;17.73;10.57;;;6.60;63.90;;;;;;5031527;28;20198;-68
2023/01/27 08:33:37;;;;;;;16.38;9.90;;;6.60;63.80;;;;;;5031982;28;20222;-68
2023/01/27 08:36:09;;;;;;;14.30;9.68;;;6.60;63.70;;;;;;5032297;28;20233;-68
2023/01/27 08:38:36;;;;;;;15.85;10.45;;;6.60;64.00;;;;;;5032399;28;20593;-68
2023/01/27 08:41:05;;;;;;;13.93;9.45;;;6.60;63.20;;;;;;5017900;28;20219;-70
2023/01/27 08:43:33;;;;;;;15.05;9.30;;;6.70;63.30;;;;;;5027412;28;20207;-70
2023/01/27 08:46:00;;;;;;;14.07;9.65;;;6.70;63.20;;;;;;5031564;28;20222;-70
2023/01/27 08:48:28;;;;;;;13.88;10.02;;;6.70;63.10;;;;;;5031398;28;20230;-68
2023/01/27 08:50:55;;;;;;;15.80;9.50;;;6.70;63.80;;;;;;5018793;28;20203;-68
2023/01/27 08:53:24;;;;;;;14.75;9.25;;;6.70;62.80;;;;;;5011898;28;20226;-69
2023/01/27 08:55:53;;;;;;;13.40;9.48;;;6.80;62.80;;;;;;5012189;28;20212;-68
2023/01/27 08:58:19;;;;;;;14.52;10.15;;;6.80;62.50;;;;;;5012133;28;20210;-68
2023/01/27 09:00:46;;;;;;;14.43;9.88;;;6.80;62.60;;;;;;5012036;28;20223;-68
2023/01/27 09:03:13;;;;;;;13.95;9.40;;;6.80;62.70;;;;;;5012039;28;20215;-68
2023/01/27 09:05:41;;;;;;;14.60;9.05;;;6.90;62.60;;;;;;5012094;28;20610;-68
2023/01/27 09:08:08;;;;;;;14.25;8.80;;;6.90;62.60;;;;;;5012191;28;20229;-68
2023/01/27 09:10:39;;;;;;;14.60;9.55;;;6.90;62.60;;;;;;5020449;28;20202;-68
2023/01/27 09:13:06;;;;;;;14.27;9.43;;;7.00;62.60;;;;;;5018466;28;20234;-68
2023/01/27 09:15:34;;;;;;;13.25;8.75;;;7.00;62.70;;;;;;5011282;28;20470;-68
2023/01/27 09:18:00;;;;;;;14.25;9.65;;;7.00;62.50;;;;;;5012118;28;20231;-69
2023/01/27 09:20:27;;;;;;;12.57;8.57;;;7.10;62.30;;;;;;5022854;28;20222;-68
2023/01/27 09:22:55;;;;;;;12.50;7.90;;;7.10;61.70;;;;;;5011954;28;20448;-69
2023/01/27 09:25:22;;;;;;;12.98;8.77;;;7.10;61.70;;;;;;5011294;28;20238;-69
2023/01/27 09:27:54;;;;;;;10.63;7.80;;;7.10;61.70;;;;;;5014178;28;20214;-68
2023/01/27 09:30:21;;;;;;;9.18;6.47;;;7.20;61.10;;;;;;5031258;28;20245;-69
2023/01/27 09:32:48;;;;;;;10.20;6.73;;;7.20;60.30;;;;;;5031482;28;20234;-70
2023/01/27 09:35:15;;;;;;;9.60;6.87;;;7.20;60.50;;;;;;5031657;28;20920;-70
2023/01/27 09:37:47;;;;;;;8.37;6.77;;;7.20;60.30;;;;;;5031487;28;20805;-70
2023/01/27 09:40:24;;;;;;;7.63;5.80;;;7.20;60.30;;;;;;5031452;28;20890;-69
2023/01/27 09:43:19;;;;;;;7.30;5.73;;;7.30;59.80;;;;;;5031512;28;20515;-68
2023/01/27 09:45:56;;;;;;;6.43;4.93;;;7.30;59.30;;;;;;5031090;28;20480;-70
2023/01/27 09:48:52;;;;;;;7.72;4.80;;;7.30;59.30;;;;;;5028073;28;20290;-68
2023/01/27 09:51:27;;;;;;;6.78;4.70;;;7.30;58.70;;;;;;5020014;28;20253;-68
2023/01/27 09:54:08;;;;;;;7.40;4.60;;;7.40;58.40;;;;;;5031738;28;20218;-68
2023/01/27 09:56:46;;;;;;;6.07;4.53;;;7.40;58.30;;;;;;5031535;28;20532;-68
2023/01/27 09:59:39;;;;;;;7.73;5.53;;;7.40;58.30;;;;;;5030100;28;20441;-67
2023/01/27 10:02:16;;;;;;;7.75;5.05;;;7.40;58.40;;;;;;5011253;28;20538;-68
2023/01/27 10:04:55;;;;;;;9.43;5.63;;;7.40;58.30;;;;;;5016288;28;20226;-68
2023/01/27 10:07:45;;;;;;;6.47;4.40;;;7.50;58.70;;;;;;5025345;28;20211;-70
2023/01/27 10:10:33;;;;;;;7.20;4.95;;;7.40;57.80;;;;;;5026267;28;20478;-70
2023/01/27 10:13:15;;;;;;;5.57;4.30;;;7.50;57.50;;;;;;5014048;28;20641;-69
2023/01/27 10:15:52;;;;;;;6.35;4.53;;;7.50;57.90;;;;;;5024337;28;20459;-70
2023/01/27 10:18:33;;;;;;;4.63;3.92;;;7.50;57.30;;;;;;5034287;28;20222;-70
2023/01/27 10:21:07;;;;;;;5.83;4.23;;;7.50;57.30;;;;;;5034548;28;20199;-68
2023/01/27 10:23:44;;;;;;;5.90;4.45;;;7.50;57.20;;;;;;5034114;28;20472;-69
2023/01/27 10:26:23;;;;;;;7.30;4.13;;;7.50;57.30;;;;;;5032491;28;20233;-69
2023/01/27 10:28:54;;;;;;;6.75;4.43;;;7.50;57.20;;;;;;5029829;28;20195;-70
2023/01/27 10:31:26;;;;;;;5.40;4.45;;;7.50;57.10;;;;;;5015523;28;20227;-70
2023/01/27 10:33:55;;;;;;;5.60;4.10;;;7.50;57.10;;;;;;5014493;28;20562;-70
2023/01/27 10:36:28;;;;;;;5.88;3.80;;;7.40;56.90;;;;;;4995483;28;20453;-70
2023/01/27 10:39:08;;;;;;;5.35;4.25;;;7.40;56.80;;;;;;5034459;28;20602;-68
2023/01/27 10:41:46;;;;;;;4.70;4.20;;;7.50;57.00;;;;;;5029818;28;20211;-70
2023/01/27 10:44:39;;;;;;;6.30;4.43;;;7.50;56.50;;;;;;5034098;28;20480;-68
2023/01/27 10:47:17;;;;;;;5.63;3.95;;;7.50;56.80;;;;;;5023818;28;20202;-69
2023/01/27 10:49:50;;;;;;;5.72;4.20;;;7.50;56.70;;;;;;5014939;28;20210;-68
2023/01/27 10:52:20;;;;;;;6.07;4.07;;;7.50;56.50;;;;;;5034181;28;20289;-68
2023/01/27 10:54:53;;;;;;;6.20;3.70;;;7.50;56.40;;;;;;5030870;28;20215;-68
2023/01/27 10:57:25;;;;;;;4.90;3.95;;;7.50;56.30;;;;;;5022777;28;20226;-70
2023/01/27 11:00:01;;;;;;;5.53;4.07;;;7.60;56.40;;;;;;5014436;28;20223;-68
2023/01/27 11:02:35;;;;;;;5.25;4.05;;;7.60;56.40;;;;;;5014246;28;20191;-69
2023/01/27 11:05:07;;;;;;;5.03;4.38;;;7.60;56.60;;;;;;5019638;28;20226;-68
2023/01/27 11:07:43;;;;;;;6.85;4.53;;;7.60;56.60;;;;;;5033394;28;20205;-69
2023/01/27 11:10:17;;;;;;;7.20;3.87;;;7.70;56.20;;;;;;5033754;28;20209;-69
2023/01/27 11:12:47;;;;;;;4.20;3.55;;;7.70;56.30;;;;;;5032562;28;20532;-69
2023/01/27 11:29:31;;;;;;;5.13;4.10;;;7.70;55.90;;;;;;4997495;28;20437;-69
2023/01/27 11:32:04;;;;;;;4.50;3.67;;;7.70;55.90;;;;;;4993847;28;20447;-70
2023/01/27 11:34:37;;;;;;;4.70;3.90;;;7.70;56.00;;;;;;4994799;28;20501;-68
2023/01/27 11:40:01;;;;;;;5.55;4.00;;;7.70;55.90;;;;;;4993437;28;20529;-70
2023/01/27 11:42:31;;;;;;;5.50;4.10;;;7.70;56.80;;;;;;4984016;28;20311;-70
2023/01/27 11:45:01;;;;;;;5.55;4.28;;;7.80;56.60;;;;;;4983012;28;20286;-69
2023/01/27 11:47:30;;;;;;;5.25;3.83;;;7.80;56.20;;;;;;4974368;28;20216;-69
2023/01/27 11:49:59;;;;;;;5.47;3.78;;;7.80;55.90;;;;;;4974971;28;20216;-70
2023/01/27 11:52:28;;;;;;;4.28;3.67;;;7.90;55.80;;;;;;4974179;28;20204;-70
2023/01/27 11:55:04;;;;;;;4.15;3.60;;;7.90;55.80;;;;;;4983371;28;20696;-68
2023/01/27 11:57:31;;;;;;;5.13;3.90;;;7.90;55.50;;;;;;4993593;28;20203;-68
2023/01/27 12:00:04;;;;;;;4.43;3.73;;;7.90;55.50;;;;;;4992255;28;20239;-69
2023/01/27 12:02:36;;;;;;;4.72;3.80;;;7.80;55.40;;;;;;4989219;28;20483;-68
2023/01/27 12:05:08;;;;;;;5.43;4.10;;;7.90;55.70;;;;;;4992778;28;20208;-70
2023/01/27 12:07:45;;;;;;;4.95;3.90;;;7.90;55.60;;;;;;4993437;28;20441;-68
2023/01/27 12:10:26;;;;;;;4.67;3.80;;;7.90;55.60;;;;;;4991859;28;20196;-68
2023/01/27 12:12:54;;;;;;;5.22;4.10;;;7.90;55.50;;;;;;4988824;28;20553;-68
2023/01/27 12:15:24;;;;;;;6.55;4.03;;;7.90;55.60;;;;;;4989200;28;20572;-68
2023/01/27 12:17:55;;;;;;;4.35;3.67;;;7.90;55.40;;;;;;4973423;28;20212;-69
2023/01/27 12:20:41;;;;;;;4.47;3.78;;;7.80;55.30;;;;;;4976943;28;20189;-69
2023/01/27 12:23:20;;;;;;;4.47;3.70;;;7.80;55.30;;;;;;4976396;28;20205;-68
2023/01/27 12:25:50;;;;;;;5.70;4.07;;;7.80;55.50;;;;;;4995838;28;20562;-68
2023/01/27 12:28:27;;;;;;;4.05;3.60;;;7.80;55.50;;;;;;4994519;28;20215;-68
2023/01/27 12:31:02;;;;;;;4.83;3.87;;;7.90;55.70;;;;;;5002127;28;20274;-68
2023/01/27 12:33:31;;;;;;;5.40;4.35;;;7.90;55.70;;;;;;5012293;28;20531;-69
2023/01/27 12:36:00;;;;;;;4.77;4.27;;;7.80;55.70;;;;;;5037099;28;20212;-69
2023/01/27 12:38:32;;;;;;;4.90;4.07;;;7.90;55.80;;;;;;5014678;28;20450;-69
2023/01/27 12:41:01;;;;;;;5.32;4.40;;;7.90;56.20;;;;;;5012421;28;20298;-70
2023/01/27 12:43:28;;;;;;;6.10;4.40;;;7.90;56.10;;;;;;5013676;28;20202;-69
2023/01/27 12:46:20;;;;;;;6.20;4.77;;;7.90;55.60;;;;;;5014835;28;20223;-69
2023/01/27 12:48:50;;;;;;;6.20;4.10;;;7.90;55.50;;;;;;5025257;28;20468;-69
2023/01/27 15:06:47;;;;;;;6.68;4.38;;;8.10;55.50;;;;;;4617818;28;20860;-66
2023/01/27 15:09:38;;;;;;;4.63;4.10;;;8.10;55.40;;;;;;5037988;28;20200;-64
2023/01/27 15:12:33;;;;;;;4.45;3.75;;;8.10;55.30;;;;;;5036100;28;20441;-67
2023/01/27 15:15:27;;;;;;;4.43;3.80;;;8.10;55.20;;;;;;5011245;28;20718;-65
2023/01/27 15:18:10;;;;;;;4.53;3.92;;;8.20;55.40;;;;;;5033947;28;20206;-70
2023/01/27 15:20:59;;;;;;;4.60;3.90;;;8.10;55.40;;;;;;5034427;28;20206;-70
2023/01/27 15:23:47;;;;;;;3.78;3.38;;;8.10;55.50;;;;;;5039614;28;20197;-70
2023/01/27 15:26:19;;;;;;;5.57;4.50;;;8.10;55.50;;;;;;5048076;28;20206;-72
2023/01/27 15:28:47;;;;;;;5.23;4.13;;;8.10;55.60;;;;;;5033254;28;20480;-70
2023/01/27 15:31:26;;;;;;;6.05;4.80;;;8.10;55.60;;;;;;5031663;28;20473;-70
2023/01/27 15:33:55;;;;;;;6.10;4.17;;;8.10;55.70;;;;;;5033640;28;20234;-71
2023/01/27 15:36:34;;;;;;;5.88;4.03;;;8.10;55.80;;;;;;5033123;28;20459;-71
2023/01/27 15:39:29;;;;;;;5.47;4.45;;;8.10;55.60;;;;;;5033417;28;20226;-71
2023/01/27 15:42:12;;;;;;;5.80;4.43;;;8.10;55.50;;;;;;5050964;28;20202;-70
2023/01/27 15:45:34;;;;;;;5.88;4.97;;;8.10;55.60;;;;;;5053381;28;20210;-71
2023/01/27 15:48:07;;;;;;;5.07;4.30;;;8.20;55.60;;;;;;4991914;28;20668;-71
2023/01/27 15:50:38;;;;;;;5.27;4.70;;;8.20;55.80;;;;;;5032618;28;20842;-72
2023/01/27 15:53:12;;;;;;;6.00;4.65;;;8.20;56.00;;;;;;5033235;28;20441;-72
2023/01/27 15:55:49;;;;;;;5.15;4.35;;;8.10;55.80;;;;;;5033053;28;20218;-71
2023/01/27 15:58:34;;;;;;;5.67;4.73;;;8.20;55.70;;;;;;5013843;28;20199;-72
2023/01/27 16:01:03;;;;;;;4.93;4.43;;;8.10;55.70;;;;;;5013444;28;20815;-72
2023/01/27 16:03:36;;;;;;;6.60;4.80;;;8.10;55.90;;;;;;5032756;28;20449;-71
2023/01/27 16:06:08;;;;;;;5.88;4.80;;;8.10;56.10;;;;;;5032237;28;20321;-72
2023/01/27 16:08:41;;;;;;;7.50;5.40;;;8.10;56.30;;;;;;5033213;28;20269;-70
2023/01/27 16:11:42;;;;;;;7.83;5.63;;;8.00;56.10;;;;;;5032918;28;20468;-70
2023/01/27 16:14:38;;;;;;;8.17;6.20;;;8.00;56.10;;;;;;5032180;28;20507;-70
2023/01/27 16:17:17;;;;;;;9.97;7.40;;;8.00;56.50;;;;;;5030943;28;20469;-72